Time;durP1;ratioP1;P1;durP2;ratioP2;P2;SDS_P1;SDS_P2;PMS_P1;PMS_P2;Temp;Humidity;BMP_temperature;BMP_pressure;BME280_temperature;BME280_humidity;BME280_pressure;Samples;Min_cycle;Max_cycle;Signal;HPM_P1;HPM_P2
2021/06/08 00:00:02;;;;;;;6.45;5.76;;;;;;;15.92;84.75;100287.35;464984;110;922759;-66
2021/06/08 00:01:07;;;;;;;7.27;6.49;;;;;;;15.90;84.72;100287.59;463083;112;930561;-65
2021/06/08 00:02:11;;;;;;;5.86;5.46;;;;;;;15.89;84.76;100290.59;464542;112;925960;-67
2021/06/08 00:03:15;;;;;;;8.06;5.56;;;;;;;15.88;84.72;100286.21;464282;110;931988;-67
2021/06/08 00:04:19;;;;;;;6.30;5.72;;;;;;;15.86;84.63;100291.95;465559;112;924414;-67
2021/06/08 00:05:24;;;;;;;10.71;5.91;;;;;;;15.83;84.61;100287.79;464206;112;926738;-67
2021/06/08 00:06:28;;;;;;;7.34;5.86;;;;;;;15.83;84.75;100285.04;463914;110;923958;-67
2021/06/08 00:07:32;;;;;;;6.43;5.84;;;;;;;15.82;84.78;100280.63;464736;112;930397;-67
2021/06/08 00:08:35;;;;;;;6.40;5.87;;;;;;;15.84;84.89;100280.38;464156;112;922559;-67
2021/06/08 00:09:39;;;;;;;7.22;6.24;;;;;;;15.85;85.02;100284.80;466418;112;922526;-67
2021/06/08 00:10:43;;;;;;;6.96;6.34;;;;;;;15.87;85.14;100282.62;464685;110;925871;-66
2021/06/08 00:11:48;;;;;;;7.40;6.15;;;;;;;15.88;85.14;100295.27;465522;110;922902;-67
2021/06/08 00:12:51;;;;;;;7.00;6.01;;;;;;;15.88;85.09;100289.77;464475;110;922776;-67
2021/06/08 00:13:55;;;;;;;8.17;5.42;;;;;;;15.87;85.01;100288.13;464072;112;922941;-66
2021/06/08 00:14:58;;;;;;;7.25;5.88;;;;;;;15.87;85.00;100284.55;465823;112;930462;-67
2021/06/08 00:16:03;;;;;;;7.24;5.71;;;;;;;15.85;85.01;100282.88;465263;110;923092;-67
2021/06/08 00:17:07;;;;;;;7.40;6.25;;;;;;;15.86;85.03;100286.46;464210;110;922358;-66
2021/06/08 00:18:10;;;;;;;6.38;5.83;;;;;;;15.85;85.05;100282.05;463937;112;930447;-66
2021/06/08 00:19:14;;;;;;;5.52;5.12;;;;;;;15.86;85.05;100280.96;466625;112;922374;-66
2021/06/08 00:20:18;;;;;;;8.69;6.46;;;;;;;15.85;85.03;100280.13;465249;110;930388;-66
2021/06/08 00:21:22;;;;;;;6.55;5.67;;;;;;;15.85;85.00;100276.55;464087;112;923028;-67
2021/06/08 00:22:26;;;;;;;7.36;6.41;;;;;;;15.84;85.04;100278.45;464053;112;930433;-67
2021/06/08 00:23:29;;;;;;;7.18;6.65;;;;;;;15.84;84.84;100283.95;465394;112;922980;-67
2021/06/08 00:24:33;;;;;;;5.87;5.38;;;;;;;15.81;84.67;100280.91;465013;111;922386;-67
2021/06/08 00:25:38;;;;;;;6.52;5.36;;;;;;;15.76;84.57;100276.17;466606;110;923111;-65
2021/06/08 00:26:42;;;;;;;7.18;6.55;;;;;;;15.72;84.46;100269.51;467056;112;922474;-69
2021/06/08 00:27:46;;;;;;;6.27;5.74;;;;;;;15.68;84.41;100270.28;466596;112;930551;-67
2021/06/08 00:28:50;;;;;;;6.78;6.14;;;;;;;15.65;84.48;100268.89;466819;110;930634;-66
2021/06/08 00:29:53;;;;;;;5.95;5.38;;;;;;;15.62;84.45;100260.30;468026;110;922378;-66
2021/06/08 00:30:57;;;;;;;6.40;5.81;;;;;;;15.60;84.46;100268.80;465443;112;922463;-67
2021/06/08 00:32:01;;;;;;;7.33;5.53;;;;;;;15.59;84.57;100269.91;468161;110;923099;-66
2021/06/08 00:33:05;;;;;;;9.79;5.38;;;;;;;15.57;84.64;100266.58;467395;110;922938;-67
2021/06/08 00:34:09;;;;;;;9.42;5.64;;;;;;;15.57;84.63;100272.07;466512;110;922510;-67
2021/06/08 00:35:13;;;;;;;5.79;4.76;;;;;;;15.56;84.65;100266.82;467445;110;924039;-66
2021/06/08 00:36:29;;;;;;;10.83;7.26;;;;;;;15.54;84.67;100267.09;467258;112;922681;-66
2021/06/08 00:37:32;;;;;;;6.48;5.92;;;;;;;15.54;84.69;100266.27;466426;112;931108;-74
2021/06/08 00:38:36;;;;;;;13.49;6.08;;;;;;;15.54;84.73;100269.02;467763;110;922582;-74
2021/06/08 00:39:40;;;;;;;6.17;5.58;;;;;;;15.54;84.79;100266.27;467909;110;922690;-73
2021/06/08 00:40:45;;;;;;;8.23;5.30;;;;;;;15.54;84.86;100277.26;466626;110;926642;-74
2021/06/08 00:41:49;;;;;;;8.32;5.28;;;;;;;15.53;84.80;100265.44;468442;110;931946;-76
2021/06/08 00:42:54;;;;;;;6.46;5.96;;;;;;;15.53;84.71;100270.92;467358;110;930824;-75
2021/06/08 00:44:01;;;;;;;7.01;6.06;;;;;;;15.51;84.65;100261.23;465662;112;924000;-74
2021/06/08 00:45:06;;;;;;;7.05;6.39;;;;;;;15.49;84.59;100263.42;467009;110;923001;-74
2021/06/08 00:46:10;;;;;;;6.28;5.77;;;;;;;15.46;84.60;100262.00;466807;110;926597;-74
2021/06/08 00:47:14;;;;;;;7.32;5.94;;;;;;;15.43;84.62;100257.86;467256;110;922471;-75
2021/06/08 00:48:18;;;;;;;8.03;5.62;;;;;;;15.41;84.63;100257.27;466042;112;922539;-74
2021/06/08 00:49:22;;;;;;;5.55;5.12;;;;;;;15.40;84.68;100260.27;467162;110;930600;-75
2021/06/08 00:50:26;;;;;;;7.75;6.41;;;;;;;15.38;84.68;100257.77;467599;110;922674;-75
2021/06/08 00:51:30;;;;;;;6.61;5.91;;;;;;;15.38;84.83;100263.26;466437;112;923055;-75
2021/06/08 00:52:33;;;;;;;9.15;5.84;;;;;;;15.37;84.83;100253.38;466579;110;923224;-75
2021/06/08 00:53:37;;;;;;;7.61;5.70;;;;;;;15.36;84.82;100257.20;467189;110;923206;-74
2021/06/08 00:54:41;;;;;;;6.28;5.56;;;;;;;15.34;84.82;100262.11;467091;110;931931;-74
2021/06/08 00:55:45;;;;;;;6.36;5.71;;;;;;;15.35;84.81;100271.19;467410;110;933384;-73
2021/06/08 00:56:49;;;;;;;7.76;6.12;;;;;;;15.32;84.85;100269.80;468527;110;925499;-75
2021/06/08 00:57:53;;;;;;;6.61;6.04;;;;;;;15.31;84.88;100259.89;467896;110;923795;-74
2021/06/08 00:58:57;;;;;;;6.29;5.75;;;;;;;15.31;84.89;100268.13;467338;112;923025;-75
2021/06/08 01:00:01;;;;;;;6.79;5.75;;;;;;;15.31;84.89;100259.05;467848;110;926274;-75
2021/06/08 01:01:05;;;;;;;9.39;6.00;;;;;;;15.31;84.90;100267.30;466686;112;923650;-75
2021/06/08 01:02:09;;;;;;;7.34;5.81;;;;;;;15.30;84.88;100260.97;466970;110;924011;-75
2021/06/08 01:03:13;;;;;;;6.99;5.66;;;;;;;15.31;84.82;100270.04;467537;112;922945;-75
2021/06/08 01:04:17;;;;;;;6.96;5.29;;;;;;;15.30;84.83;100265.62;467296;110;922556;-75
2021/06/08 01:05:21;;;;;;;6.79;5.65;;;;;;;15.29;84.80;100266.70;468033;110;930441;-75
2021/06/08 01:06:25;;;;;;;7.70;4.87;;;;;;;15.28;84.80;100274.11;466181;112;930572;-75
2021/06/08 01:07:28;;;;;;;5.98;5.40;;;;;;;15.27;84.84;100277.94;468205;110;922440;-75
2021/06/08 01:08:31;;;;;;;6.26;4.93;;;;;;;15.25;84.83;100274.63;466760;110;923019;-76
2021/06/08 01:09:35;;;;;;;9.27;5.86;;;;;;;15.24;84.82;100275.70;466980;110;930525;-74
2021/06/08 01:10:39;;;;;;;6.74;5.72;;;;;;;15.24;84.88;100275.70;468014;110;922422;-75
2021/06/08 01:11:42;;;;;;;5.35;4.95;;;;;;;15.23;84.89;100276.78;467758;110;931629;-75
2021/06/08 01:12:46;;;;;;;6.65;5.92;;;;;;;15.22;84.92;100283.36;466960;110;923838;-75
2021/06/08 01:13:50;;;;;;;5.41;4.79;;;;;;;15.22;84.96;100277.87;468094;110;924031;-75
2021/06/08 01:14:54;;;;;;;5.27;4.74;;;;;;;15.23;85.03;100281.45;467333;112;923957;-75
2021/06/08 01:15:58;;;;;;;5.58;5.07;;;;;;;15.24;85.14;100283.11;465945;112;932080;-75
2021/06/08 01:17:03;;;;;;;7.59;5.29;;;;;;;15.27;85.09;100285.38;467480;110;926283;-76
2021/06/08 01:18:07;;;;;;;5.35;4.84;;;;;;;15.26;85.07;100279.05;466148;110;924071;-74
2021/06/08 01:19:10;;;;;;;6.39;4.64;;;;;;;15.27;85.10;100277.13;467176;112;925794;-75
2021/06/08 01:20:18;;;;;;;4.74;4.34;;;;;;;15.28;85.08;100278.77;468140;112;927427;-73
2021/06/08 01:21:22;;;;;;;5.41;4.61;;;;;;;15.30;85.17;100284.85;466913;110;923121;-75
2021/06/08 01:22:25;;;;;;;4.49;4.10;;;;;;;15.30;85.15;100282.94;467254;110;922995;-75
2021/06/08 01:23:29;;;;;;;4.97;3.98;;;;;;;15.31;85.09;100281.03;466917;110;923343;-75
2021/06/08 01:24:33;;;;;;;4.23;3.74;;;;;;;15.33;85.07;100281.59;466817;110;922377;-75
2021/06/08 01:25:36;;;;;;;4.34;3.98;;;;;;;15.32;85.07;100288.19;467619;110;930495;-74
2021/06/08 01:26:40;;;;;;;5.36;4.44;;;;;;;15.33;85.08;100282.42;467172;110;922542;-75
2021/06/08 01:27:44;;;;;;;4.71;4.30;;;;;;;15.33;85.17;100281.59;467782;111;930645;-74
2021/06/08 01:28:50;;;;;;;4.94;3.86;;;;;;;15.35;85.23;100290.41;468979;109;930374;-75
2021/06/08 01:29:56;;;;;;;6.63;4.46;;;;;;;15.35;85.29;100285.76;468077;110;923394;-75
2021/06/08 01:31:03;;;;;;;5.91;3.99;;;;;;;15.38;85.25;100287.98;466832;110;922525;-74
2021/06/08 01:32:09;;;;;;;5.83;3.66;;;;;;;15.39;85.25;100286.91;467818;109;923586;-76
2021/06/08 01:33:14;;;;;;;5.76;3.88;;;;;;;15.41;85.23;100282.00;468609;111;922519;-76
2021/06/08 01:34:18;;;;;;;4.73;3.86;;;;;;;15.43;85.19;100288.08;467440;110;922596;-74
2021/06/08 01:35:21;;;;;;;3.85;3.54;;;;;;;15.42;85.15;100280.92;466840;111;922486;-74
2021/06/08 01:36:28;;;;;;;4.22;3.67;;;;;;;15.44;85.11;100288.88;467365;109;922421;-76
2021/06/08 01:37:33;;;;;;;5.11;3.45;;;;;;;15.47;85.15;100287.56;466719;110;923107;-75
2021/06/08 01:38:37;;;;;;;4.89;3.72;;;;;;;15.48;85.09;100287.31;467873;109;923062;-75
2021/06/08 01:39:46;;;;;;;3.66;3.36;;;;;;;15.48;85.10;100290.06;467613;110;930470;-75
2021/06/08 01:40:50;;;;;;;4.16;3.35;;;;;;;15.50;85.07;100284.30;468670;110;930445;-75
2021/06/08 01:41:54;;;;;;;5.16;3.74;;;;;;;15.51;85.14;100283.21;466982;110;923277;-76
2021/06/08 01:42:59;;;;;;;4.89;3.72;;;;;;;15.52;85.11;100284.91;469561;110;923114;-75
2021/06/08 01:44:04;;;;;;;6.71;3.58;;;;;;;15.53;85.11;100287.41;467584;111;923906;-74
2021/06/08 01:45:09;;;;;;;3.76;3.36;;;;;;;15.55;85.07;100284.42;467939;109;922339;-75
2021/06/08 01:46:18;;;;;;;3.53;3.13;;;;;;;15.55;84.99;100287.17;468544;110;922880;-75
2021/06/08 01:47:21;;;;;;;5.18;3.21;;;;;;;15.57;84.95;100282.23;468192;110;922840;-75
2021/06/08 01:48:25;;;;;;;5.47;2.99;;;;;;;15.57;84.91;100294.05;468136;110;922361;-76
2021/06/08 01:49:29;;;;;;;3.28;2.98;;;;;;;15.59;84.97;100297.39;467992;109;931931;-74
2021/06/08 01:50:33;;;;;;;4.59;3.18;;;;;;;15.62;85.04;100290.53;468583;110;930536;-75
2021/06/08 01:51:49;;;;;;;3.17;2.86;;;;;;;15.64;85.01;100293.88;467605;109;924604;-74
2021/06/08 01:52:57;;;;;;;3.90;3.05;;;;;;;15.64;84.91;100291.13;467762;110;923974;-75
2021/06/08 01:54:22;;;;;;;3.84;3.47;;;;;;;15.64;84.82;100293.88;467560;110;923745;-75
2021/06/08 01:55:31;;;;;;;4.25;3.74;;;;;;;15.63;84.70;100292.20;467628;110;924021;-75
2021/06/08 01:56:37;;;;;;;4.43;3.91;;;;;;;15.60;84.65;100295.48;467904;110;923985;-75
2021/06/08 01:57:48;;;;;;;4.45;4.02;;;;;;;15.57;84.64;100301.47;468287;109;923033;-75
2021/06/08 01:58:59;;;;;;;5.14;4.25;;;;;;;15.57;84.71;100293.22;467559;109;922757;-76
2021/06/08 02:00:09;;;;;;;4.79;4.12;;;;;;;15.57;84.79;100293.22;466522;110;923889;-76
2021/06/08 02:01:22;;;;;;;4.47;4.02;;;;;;;15.56;84.75;100294.30;470713;109;924053;-75
2021/06/08 02:02:53;;;;;;;4.97;4.37;;;;;;;15.55;84.72;100298.96;466568;109;926842;-76
2021/06/08 02:04:15;;;;;;;5.45;4.90;;;;;;;15.55;84.80;100298.96;467352;110;923703;-75
2021/06/08 02:05:40;;;;;;;4.99;4.56;;;;;;;15.54;84.88;100299.24;466893;111;922506;-74
2021/06/08 02:06:52;;;;;;;4.56;4.01;;;;;;;15.54;84.81;100294.58;468047;110;922114;-76
2021/06/08 02:08:05;;;;;;;5.13;3.66;;;;;;;15.52;84.83;100299.48;468692;111;922297;-75
2021/06/08 02:09:21;;;;;;;5.62;3.54;;;;;;;15.51;84.88;100299.70;469395;109;922570;-75
2021/06/08 02:10:49;;;;;;;8.88;3.73;;;;;;;15.51;84.92;100305.20;467999;109;922981;-75
2021/06/08 02:12:13;;;;;;;4.19;3.46;;;;;;;15.50;84.87;100301.61;467800;110;922647;-76
2021/06/08 02:13:32;;;;;;;4.42;3.57;;;;;;;15.50;84.96;100309.86;468235;110;923326;-76
2021/06/08 02:14:42;;;;;;;4.01;3.58;;;;;;;15.49;84.94;100310.13;467750;111;922656;-75
2021/06/08 02:15:55;;;;;;;4.72;3.67;;;;;;;15.48;84.91;100306.55;467672;111;922460;-73
2021/06/08 02:17:14;;;;;;;5.35;3.83;;;;;;;15.49;85.00;100315.63;468489;110;923131;-75
2021/06/08 02:18:21;;;;;;;5.55;4.06;;;;;;;15.49;85.03;100308.22;466418;109;923040;-76
2021/06/08 02:19:25;;;;;;;4.36;3.61;;;;;;;15.49;84.99;100310.97;467219;109;924042;-75
2021/06/08 02:20:34;;;;;;;3.64;3.30;;;;;;;15.49;85.01;100305.47;466834;111;926839;-77
2021/06/08 02:21:43;;;;;;;6.33;3.81;;;;;;;15.51;85.06;100305.20;468914;109;924145;-75
2021/06/08 02:22:51;;;;;;;4.91;3.58;;;;;;;15.53;85.08;100305.81;469587;109;923994;-73
2021/06/08 02:23:55;;;;;;;5.63;4.31;;;;;;;15.55;85.04;100306.41;470085;111;923985;-75
2021/06/08 02:25:00;;;;;;;4.33;3.80;;;;;;;15.57;85.06;100304.21;468824;110;923964;-72
2021/06/08 02:26:04;;;;;;;4.17;3.42;;;;;;;15.58;84.96;100306.72;466497;111;922351;-74
2021/06/08 02:27:11;;;;;;;4.18;3.81;;;;;;;15.58;84.76;100306.72;464568;112;925851;-75
2021/06/08 02:28:16;;;;;;;5.82;4.77;;;;;;;15.57;84.61;100304.21;464469;112;925558;-76
2021/06/08 02:29:22;;;;;;;6.80;4.26;;;;;;;15.56;84.58;100305.30;465681;112;923079;-75
2021/06/08 02:30:28;;;;;;;5.39;4.25;;;;;;;15.54;84.54;100304.73;465144;110;926130;-74
2021/06/08 02:31:34;;;;;;;4.73;4.33;;;;;;;15.53;84.56;100305.81;465338;112;924036;-73
2021/06/08 02:32:40;;;;;;;5.99;4.26;;;;;;;15.53;84.53;100312.14;463768;110;922611;-78
2021/06/08 02:33:48;;;;;;;6.77;4.51;;;;;;;15.54;84.47;100307.48;464076;112;924103;-78
2021/06/08 02:34:53;;;;;;;4.92;4.53;;;;;;;15.53;84.39;100312.14;464626;112;923734;-77
2021/06/08 02:35:57;;;;;;;8.10;4.12;;;;;;;15.52;84.41;100304.98;465262;112;924368;-77
2021/06/08 02:37:03;;;;;;;5.39;4.07;;;;;;;15.53;84.46;100308.56;464110;112;931955;-78
2021/06/08 02:38:08;;;;;;;6.26;4.39;;;;;;;15.52;84.38;100307.73;464619;110;922733;-78
2021/06/08 02:39:12;;;;;;;5.89;4.53;;;;;;;15.53;84.35;100306.66;464631;110;922789;-75
2021/06/08 02:40:17;;;;;;;7.45;4.31;;;;;;;15.53;84.45;100308.56;463675;112;924465;-75
2021/06/08 02:41:23;;;;;;;5.37;4.29;;;;;;;15.55;84.64;100312.70;464571;110;923950;-77
2021/06/08 02:42:26;;;;;;;5.35;4.86;;;;;;;15.58;84.75;100309.47;464879;112;924095;-76
2021/06/08 02:43:32;;;;;;;5.72;3.93;;;;;;;15.62;84.88;100310.61;465775;110;924964;-74
2021/06/08 02:44:38;;;;;;;5.19;3.84;;;;;;;15.67;84.86;100312.59;463911;112;924072;-75
2021/06/08 02:45:42;;;;;;;5.54;4.19;;;;;;;15.70;84.85;100307.44;465023;110;925999;-75
2021/06/08 02:46:47;;;;;;;5.31;4.16;;;;;;;15.74;84.83;100304.99;466083;111;924005;-74
2021/06/08 02:47:52;;;;;;;5.30;4.44;;;;;;;15.77;84.79;100310.80;464718;112;932577;-75
2021/06/08 02:48:57;;;;;;;6.16;4.47;;;;;;;15.80;84.72;100303.98;465269;112;924721;-74
2021/06/08 02:50:03;;;;;;;7.46;4.37;;;;;;;15.83;84.64;100308.95;463940;112;925404;-76
2021/06/08 02:51:07;;;;;;;4.49;4.09;;;;;;;15.85;84.42;100312.28;465049;110;922535;-74
2021/06/08 02:52:12;;;;;;;4.83;4.10;;;;;;;15.86;84.33;100308.45;466027;112;926241;-75
2021/06/08 02:53:17;;;;;;;4.52;3.86;;;;;;;15.87;84.28;100310.12;465060;112;925825;-75
2021/06/08 02:54:21;;;;;;;4.84;3.72;;;;;;;15.89;84.24;100305.18;464779;112;923659;-75
2021/06/08 02:55:27;;;;;;;6.14;4.19;;;;;;;15.91;84.22;100310.43;464669;110;932057;-76
2021/06/08 02:56:32;;;;;;;5.19;4.31;;;;;;;15.92;84.23;100307.44;465210;110;922454;-74
2021/06/08 02:57:37;;;;;;;4.23;3.76;;;;;;;15.95;84.21;100311.57;464846;112;925057;-75
2021/06/08 02:58:42;;;;;;;4.51;3.55;;;;;;;15.97;84.23;100303.91;464839;110;924095;-75
2021/06/08 02:59:50;;;;;;;4.76;4.09;;;;;;;16.01;84.24;100311.37;465421;110;922766;-74
2021/06/08 03:00:54;;;;;;;4.61;4.08;;;;;;;16.04;84.19;100308.13;465835;110;922629;-76
2021/06/08 03:01:58;;;;;;;6.28;4.43;;;;;;;16.08;84.17;100316.69;464451;112;923799;-74
2021/06/08 03:03:06;;;;;;;6.65;4.38;;;;;;;16.11;84.19;100314.25;465037;112;924505;-75
2021/06/08 03:04:13;;;;;;;4.57;4.17;;;;;;;16.16;84.21;100310.72;463915;112;926913;-73
2021/06/08 03:05:20;;;;;;;7.37;4.16;;;;;;;16.21;84.15;100316.27;466551;110;922834;-74
2021/06/08 03:06:31;;;;;;;4.39;3.99;;;;;;;16.25;84.05;100314.69;466546;112;923710;-76
2021/06/08 03:07:38;;;;;;;4.36;3.99;;;;;;;16.29;83.99;100307.57;464020;112;925610;-73
2021/06/08 03:09:00;;;;;;;6.39;4.94;;;;;;;16.34;83.91;100315.05;466371;112;928004;-75
2021/06/08 03:10:14;;;;;;;5.38;4.21;;;;;;;16.37;83.72;100304.37;465483;110;922862;-75
2021/06/08 03:11:21;;;;;;;5.64;5.03;;;;;;;16.39;83.61;100309.59;463735;112;922683;-76
2021/06/08 03:12:29;;;;;;;4.84;4.12;;;;;;;16.42;83.61;100315.42;464945;110;924009;-74
2021/06/08 03:13:35;;;;;;;5.62;5.10;;;;;;;16.44;83.64;100315.14;466312;112;923141;-75
2021/06/08 03:14:42;;;;;;;7.73;5.33;;;;;;;16.48;83.59;100316.31;464346;112;922490;-76
2021/06/08 03:15:52;;;;;;;5.94;5.36;;;;;;;16.51;83.53;100313.02;464977;112;923963;-76
2021/06/08 03:16:58;;;;;;;6.81;5.62;;;;;;;16.54;83.42;100309.77;464970;112;926169;-76
2021/06/08 03:18:05;;;;;;;7.99;6.33;;;;;;;16.56;83.31;100310.31;465727;110;930514;-75
2021/06/08 03:19:11;;;;;;;7.79;5.94;;;;;;;16.59;83.31;100323.61;464591;110;922813;-75
2021/06/08 03:20:20;;;;;;;9.44;6.97;;;;;;;16.62;83.17;100318.40;464716;110;922811;-74
2021/06/08 03:21:37;;;;;;;8.86;7.98;;;;;;;16.76;82.94;100316.03;470917;110;956826;-75
2021/06/08 03:22:44;;;;;;;9.28;7.49;;;;;;;16.67;82.89;100312.11;463799;112;924569;-76
2021/06/08 03:23:51;;;;;;;9.93;8.73;;;;;;;16.68;82.73;100316.52;464502;112;922456;-76
2021/06/08 03:24:59;;;;;;;11.32;9.09;;;;;;;16.71;82.68;100315.16;464503;112;926349;-75
2021/06/08 03:26:05;;;;;;;12.29;9.48;;;;;;;16.73;82.55;100319.32;462575;112;923673;-74
2021/06/08 03:27:11;;;;;;;11.17;8.79;;;;;;;16.76;82.41;100321.54;462493;112;922544;-74
2021/06/08 03:28:17;;;;;;;12.93;10.08;;;;;;;16.79;82.35;100314.69;463304;112;922432;-75
2021/06/08 03:29:22;;;;;;;11.11;9.53;;;;;;;16.82;82.40;100320.50;462324;112;922568;-76
2021/06/08 03:30:28;;;;;;;13.05;9.89;;;;;;;16.87;82.31;100314.23;462052;112;922690;-75
2021/06/08 03:31:34;;;;;;;12.07;10.12;;;;;;;16.89;82.15;100318.36;463323;112;922669;-75
2021/06/08 03:32:39;;;;;;;18.10;9.34;;;;;;;16.93;82.14;100313.14;461256;112;924038;-74
2021/06/08 03:33:43;;;;;;;14.12;9.31;;;;;;;16.96;82.01;100318.98;462555;112;922974;-76
2021/06/08 03:34:48;;;;;;;12.39;9.31;;;;;;;17.00;81.93;100322.03;463629;112;922391;-74
2021/06/08 03:35:54;;;;;;;12.12;8.53;;;;;;;17.03;81.95;100319.59;462730;112;922430;-75
2021/06/08 03:37:00;;;;;;;8.82;7.82;;;;;;;17.07;81.95;100309.70;462417;112;923078;-73
2021/06/08 03:38:04;;;;;;;8.16;6.59;;;;;;;17.12;81.74;100316.34;463230;112;922521;-75
2021/06/08 03:39:07;;;;;;;10.04;6.06;;;;;;;17.16;81.84;100314.70;463388;112;922506;-75
2021/06/08 03:40:13;;;;;;;7.16;6.30;;;;;;;17.20;81.76;100313.10;463595;112;930580;-74
2021/06/08 03:41:17;;;;;;;6.79;6.16;;;;;;;17.23;81.57;100310.64;463397;112;922472;-75
2021/06/08 03:42:21;;;;;;;11.18;5.85;;;;;;;17.28;81.48;100309.84;463263;112;922594;-75
2021/06/08 03:43:26;;;;;;;8.76;5.88;;;;;;;17.30;81.24;100307.66;463640;112;922656;-76
2021/06/08 03:44:30;;;;;;;5.86;5.31;;;;;;;17.34;81.16;100312.36;464247;112;925761;-75
2021/06/08 03:45:33;;;;;;;4.92;4.51;;;;;;;17.39;80.97;100306.88;463135;112;931988;-74
2021/06/08 03:46:39;;;;;;;6.59;5.32;;;;;;;17.43;80.64;100309.92;462988;112;922962;-76
2021/06/08 03:47:45;;;;;;;4.66;4.36;;;;;;;17.46;80.32;100309.41;464666;112;930374;-75
2021/06/08 03:48:50;;;;;;;7.28;5.17;;;;;;;17.48;80.22;100308.03;464386;112;924059;-74
2021/06/08 03:49:56;;;;;;;5.93;4.72;;;;;;;17.51;79.93;100312.20;460796;112;925467;-75
2021/06/08 03:51:02;;;;;;;4.60;4.16;;;;;;;17.53;79.87;100316.33;462965;112;924515;-74
2021/06/08 03:52:06;;;;;;;6.02;4.71;;;;;;;17.56;79.79;100311.39;463167;112;922579;-77
2021/06/08 03:53:11;;;;;;;5.34;4.84;;;;;;;17.59;79.70;100311.67;462976;112;922264;-76
2021/06/08 03:54:15;;;;;;;4.80;4.49;;;;;;;17.61;79.58;100312.27;463746;112;930551;-75
2021/06/08 03:55:21;;;;;;;5.64;5.21;;;;;;;17.64;79.54;100314.48;462795;112;924271;-73
2021/06/08 03:56:27;;;;;;;4.92;4.55;;;;;;;17.68;79.34;100310.12;464202;112;923725;-73
2021/06/08 03:57:38;;;;;;;6.22;5.56;;;;;;;17.72;79.17;100315.91;461759;112;923985;-73
2021/06/08 03:58:40;;;;;;;5.88;5.41;;;;;;;17.74;79.14;100320.08;462997;112;924113;-74
2021/06/08 03:59:45;;;;;;;5.26;4.80;;;;;;;17.77;78.95;100325.05;463977;112;923036;-76
2021/06/08 04:00:55;;;;;;;6.38;5.62;;;;;;;17.80;78.92;100323.69;463544;112;924478;-75
2021/06/08 04:02:01;;;;;;;5.74;4.77;;;;;;;17.82;78.87;100321.47;462046;112;924088;-76
2021/06/08 04:03:07;;;;;;;4.88;4.49;;;;;;;17.84;78.75;100319.28;462648;112;923953;-74
2021/06/08 04:04:18;;;;;;;5.66;5.17;;;;;;;17.85;78.84;100326.47;463446;112;926751;-76
2021/06/08 04:05:30;;;;;;;5.97;4.34;;;;;;;17.88;78.83;100317.64;462725;112;925274;-73
2021/06/08 04:06:34;;;;;;;4.08;3.87;;;;;;;17.90;78.89;100316.29;463554;112;923940;-75
2021/06/08 04:07:40;;;;;;;5.01;4.49;;;;;;;17.95;78.74;100322.92;463600;112;924146;-77
2021/06/08 04:08:45;;;;;;;4.63;4.27;;;;;;;17.97;78.79;100323.49;463845;112;931962;-75
2021/06/08 04:09:50;;;;;;;6.89;4.61;;;;;;;17.99;78.54;100326.79;462498;112;924001;-75
2021/06/08 04:10:56;;;;;;;6.52;5.34;;;;;;;17.99;78.51;100324.03;463750;112;923971;-77
2021/06/08 04:12:01;;;;;;;6.11;5.54;;;;;;;18.00;78.33;100326.53;465130;112;923455;-76
2021/06/08 04:13:05;;;;;;;6.22;5.65;;;;;;;18.01;78.19;100324.59;465215;112;923994;-76
2021/06/08 04:14:14;;;;;;;6.69;6.15;;;;;;;18.01;78.18;100321.84;467384;112;924241;-76
2021/06/08 04:15:25;;;;;;;6.88;5.97;;;;;;;18.01;78.28;100328.19;454081;114;925076;-74
2021/06/08 04:16:29;;;;;;;7.78;6.61;;;;;;;18.05;78.29;100326.55;455371;114;924102;-77
2021/06/08 04:17:33;;;;;;;8.29;7.16;;;;;;;18.08;78.28;100326.02;456263;114;922879;-74
2021/06/08 04:18:39;;;;;;;6.61;6.01;;;;;;;18.11;78.16;100330.98;454984;114;924051;-74
2021/06/08 04:19:44;;;;;;;5.82;5.38;;;;;;;18.14;77.86;100324.91;453229;114;923908;-75
2021/06/08 04:20:52;;;;;;;6.35;5.75;;;;;;;18.17;77.63;100329.91;454297;114;922545;-74
2021/06/08 04:21:57;;;;;;;7.18;5.39;;;;;;;18.18;77.62;100326.05;453999;115;923380;-75
2021/06/08 04:23:01;;;;;;;5.80;5.22;;;;;;;18.19;77.52;100322.16;453372;115;922498;-76
2021/06/08 04:24:06;;;;;;;6.01;5.04;;;;;;;18.20;77.37;100329.34;454020;116;924037;-74
2021/06/08 04:25:11;;;;;;;5.80;4.81;;;;;;;18.21;77.16;100330.19;453889;116;923017;-76
2021/06/08 04:26:16;;;;;;;5.77;5.02;;;;;;;18.21;77.25;100321.91;440907;118;923104;-76
2021/06/08 04:27:28;;;;;;;6.16;5.59;;;;;;;18.22;77.27;100321.64;443151;116;922590;-76
2021/06/08 04:28:32;;;;;;;8.80;5.89;;;;;;;18.24;77.24;100324.97;454309;116;922673;-75
2021/06/08 04:29:36;;;;;;;6.05;4.94;;;;;;;18.26;76.65;100324.67;453899;115;922909;-76
2021/06/08 04:30:42;;;;;;;5.68;5.18;;;;;;;18.28;75.71;100331.59;454295;115;930440;-77
2021/06/08 04:31:55;;;;;;;5.39;4.84;;;;;;;18.28;75.08;100330.77;454157;116;922494;-77
2021/06/08 04:32:58;;;;;;;5.24;4.84;;;;;;;18.26;74.57;100339.30;454019;116;922539;-76
2021/06/08 04:34:02;;;;;;;6.08;5.64;;;;;;;18.26;74.26;100335.72;446137;117;923921;-74
2021/06/08 04:35:09;;;;;;;6.33;5.65;;;;;;;18.26;74.06;100342.06;446668;116;924285;-78
2021/06/08 04:36:15;;;;;;;6.24;5.73;;;;;;;18.25;73.87;100339.56;446606;118;922564;-76
2021/06/08 04:37:19;;;;;;;6.46;5.72;;;;;;;18.26;73.71;100335.72;446720;116;922625;-76
2021/06/08 04:38:23;;;;;;;8.61;5.82;;;;;;;18.26;73.69;100338.48;453875;115;922872;-76
2021/06/08 04:39:27;;;;;;;7.36;6.62;;;;;;;18.26;73.47;100341.23;452813;115;922598;-74
2021/06/08 04:40:32;;;;;;;6.93;6.28;;;;;;;18.24;73.37;100338.77;453800;116;922874;-77
2021/06/08 04:41:36;;;;;;;6.79;6.24;;;;;;;18.23;73.44;100341.79;437734;121;931114;-75
2021/06/08 04:42:43;;;;;;;7.02;6.09;;;;;;;18.24;73.30;100343.45;443056;119;922693;-75
2021/06/08 04:43:48;;;;;;;6.27;5.74;;;;;;;18.23;73.27;100348.14;435364;120;922520;-74
2021/06/08 04:44:52;;;;;;;6.50;5.85;;;;;;;18.23;73.24;100350.07;440967;118;923365;-77
2021/06/08 04:46:01;;;;;;;7.83;5.75;;;;;;;18.23;73.25;100341.79;435708;121;922509;-76
2021/06/08 04:47:05;;;;;;;6.56;5.87;;;;;;;18.23;73.24;100344.55;438060;120;922422;-75
2021/06/08 04:48:09;;;;;;;7.12;6.42;;;;;;;18.22;73.16;100340.96;437854;119;923664;-75
2021/06/08 04:49:16;;;;;;;6.53;5.96;;;;;;;18.23;73.14;100339.86;439071;120;922857;-76
2021/06/08 04:50:20;;;;;;;6.00;5.60;;;;;;;18.23;72.97;100341.79;437337;120;930405;-75
2021/06/08 04:51:24;;;;;;;8.03;5.55;;;;;;;18.24;72.93;100337.94;441031;118;922907;-77
2021/06/08 04:52:29;;;;;;;12.56;6.40;;;;;;;18.25;72.95;100343.16;439152;118;926601;-76
2021/06/08 04:53:33;;;;;;;7.19;6.32;;;;;;;18.28;72.96;100347.33;440549;120;927071;-75
2021/06/08 04:54:37;;;;;;;7.30;5.55;;;;;;;18.30;73.07;100347.89;440586;120;932911;-78
2021/06/08 04:55:41;;;;;;;7.01;5.59;;;;;;;18.32;72.87;100345.67;440199;120;924063;-76
2021/06/08 04:56:45;;;;;;;5.84;5.34;;;;;;;18.34;72.93;100341.55;433295;120;933318;-75
2021/06/08 04:57:50;;;;;;;6.22;5.61;;;;;;;18.37;73.12;100345.69;445055;118;922469;-75
2021/06/08 04:58:54;;;;;;;6.46;5.82;;;;;;;18.40;73.07;100350.68;438156;120;924250;-76
2021/06/08 05:00:08;;;;;;;6.21;5.79;;;;;;;18.43;72.90;100341.84;438287;120;924756;-75
2021/06/08 05:01:21;;;;;;;5.98;5.49;;;;;;;18.45;72.78;100353.45;438088;120;924591;-73
2021/06/08 05:02:28;;;;;;;6.07;5.49;;;;;;;18.47;72.67;100350.42;437566;118;924061;-75
2021/06/08 05:03:41;;;;;;;5.94;5.23;;;;;;;18.48;72.60;100346.54;435891;119;923873;-75